createdAt,value
2022-12-29T00:01:42.985Z,3.58
2022-12-29T00:04:15.174Z,3.58
2022-12-29T00:06:43.639Z,3.62
2022-12-29T00:09:13.510Z,3.67
2022-12-29T00:11:40.359Z,3.69
2022-12-29T00:14:26.310Z,3.70
2022-12-29T00:16:53.342Z,3.70
2022-12-29T00:19:36.000Z,3.69
2022-12-29T00:22:18.276Z,3.68
2022-12-29T00:25:00.936Z,3.68
2022-12-29T00:27:44.823Z,3.67
2022-12-29T00:30:29.670Z,3.68
2022-12-29T00:33:11.997Z,3.67
2022-12-29T00:35:46.422Z,3.67
2022-12-29T00:38:30.398Z,3.67
2022-12-29T00:41:12.215Z,3.69
2022-12-29T00:43:54.574Z,3.71
2022-12-29T00:46:21.525Z,3.73
2022-12-29T00:49:04.245Z,3.71
2022-12-29T00:51:31.129Z,3.70
2022-12-29T00:53:57.853Z,3.70
2022-12-29T00:56:24.583Z,3.71
2022-12-29T00:58:51.352Z,3.75
2022-12-29T01:01:18.206Z,3.74
2022-12-29T01:03:45.879Z,3.74
2022-12-29T01:06:12.893Z,3.72
2022-12-29T01:08:39.856Z,3.70
2022-12-29T01:11:09.691Z,3.70
2022-12-29T01:13:39.151Z,3.73
2022-12-29T01:16:06.897Z,3.75
2022-12-29T01:18:35.304Z,3.76
2022-12-29T01:21:05.304Z,3.78
2022-12-29T01:23:32.747Z,3.79
2022-12-29T01:26:10.475Z,3.78
2022-12-29T01:28:39.754Z,3.75
2022-12-29T01:31:07.423Z,3.76
2022-12-29T01:33:34.509Z,3.78
2022-12-29T01:36:02.873Z,3.79
2022-12-29T01:38:29.878Z,3.80
2022-12-29T01:40:56.765Z,3.81
2022-12-29T01:43:44.538Z,3.83
2022-12-29T01:46:33.430Z,3.85
2022-12-29T01:49:19.695Z,3.86
2022-12-29T01:51:53.987Z,3.87
2022-12-29T01:54:26.373Z,3.86
2022-12-29T01:56:58.798Z,3.87
2022-12-29T01:59:32.870Z,3.88
2022-12-29T02:02:00.771Z,3.90
2022-12-29T02:04:31.561Z,3.87
2022-12-29T02:07:03.980Z,3.83
2022-12-29T02:09:31.758Z,3.79
2022-12-29T02:11:59.846Z,3.75
2022-12-29T02:14:26.618Z,3.73
2022-12-29T02:17:12.530Z,3.73
2022-12-29T02:19:54.757Z,3.76
2022-12-29T02:22:43.339Z,3.79
2022-12-29T02:25:28.921Z,3.80
2022-12-29T02:28:04.439Z,3.79
2022-12-29T02:30:54.428Z,3.79
2022-12-29T02:33:35.339Z,3.78
2022-12-29T02:36:20.478Z,3.76
2022-12-29T02:39:08.339Z,3.71
2022-12-29T02:41:46.159Z,3.69
2022-12-29T02:44:28.247Z,3.66
2022-12-29T02:47:04.422Z,3.61
2022-12-29T02:49:55.094Z,3.56
2022-12-29T02:52:31.645Z,3.53
2022-12-29T02:55:00.045Z,3.50
2022-12-29T02:57:27.535Z,3.48
2022-12-29T03:00:08.885Z,3.44
2022-12-29T03:02:35.882Z,3.42
2022-12-29T03:05:07.466Z,3.42
2022-12-29T03:07:46.080Z,3.43
2022-12-29T03:10:37.116Z,3.44
2022-12-29T03:13:35.169Z,3.49
2022-12-29T03:16:13.597Z,3.51
2022-12-29T03:18:50.254Z,3.52
2022-12-29T03:21:45.913Z,3.53
2022-12-29T03:24:14.503Z,3.50
2022-12-29T03:26:44.066Z,3.48
2022-12-29T03:29:13.459Z,3.45
2022-12-29T03:31:44.099Z,3.42
2022-12-29T03:34:12.948Z,3.38
2022-12-29T03:36:48.473Z,3.38
2022-12-29T03:39:15.279Z,3.36
2022-12-29T03:41:45.647Z,3.35
2022-12-29T03:44:13.884Z,3.32
2022-12-29T03:46:41.270Z,3.29
2022-12-29T03:49:08.253Z,3.30
2022-12-29T03:51:35.129Z,3.28
2022-12-29T03:54:02.873Z,3.29
2022-12-29T03:56:31.017Z,3.31
2022-12-29T03:58:58.743Z,3.32
2022-12-29T04:01:32.157Z,3.31
2022-12-29T04:03:59.077Z,3.31
2022-12-29T04:06:26.193Z,3.31
2022-12-29T04:09:00.335Z,3.30
2022-12-29T04:11:33.014Z,3.28
2022-12-29T04:14:00.608Z,3.26
2022-12-29T04:16:28.044Z,3.25
2022-12-29T04:18:54.986Z,3.22
2022-12-29T04:21:23.090Z,3.17
2022-12-29T04:23:49.890Z,3.11
2022-12-29T04:26:17.554Z,3.05
2022-12-29T04:28:53.483Z,2.97
2022-12-29T04:31:32.504Z,2.89
2022-12-29T04:34:00.883Z,2.85
2022-12-29T04:36:30.108Z,2.80
2022-12-29T04:38:57.788Z,2.71
2022-12-29T04:41:24.728Z,2.69
2022-12-29T04:43:51.726Z,2.70
2022-12-29T04:46:33.857Z,2.67
2022-12-29T04:49:09.713Z,2.62
2022-12-29T04:51:48.683Z,2.53
2022-12-29T04:54:16.675Z,2.44
2022-12-29T04:56:47.605Z,2.36
2022-12-29T04:59:16.536Z,2.27
2022-12-29T05:01:47.029Z,2.17
2022-12-29T05:04:14.556Z,2.04
2022-12-29T05:06:42.532Z,1.88
2022-12-29T05:09:09.852Z,1.74
2022-12-29T05:11:37.122Z,1.66
2022-12-29T05:14:04.151Z,1.63
2022-12-29T05:16:31.412Z,1.61
2022-12-29T05:18:58.377Z,1.57
2022-12-29T05:21:25.479Z,1.53
2022-12-29T05:23:52.195Z,1.49
2022-12-29T05:26:19.353Z,1.46
2022-12-29T05:28:55.343Z,1.41
2022-12-29T05:31:23.255Z,1.33
2022-12-29T05:33:50.043Z,1.27
2022-12-29T05:36:17.714Z,1.20
2022-12-29T05:38:49.618Z,1.14
2022-12-29T05:41:17.336Z,0.97
2022-12-29T05:44:01.599Z,0.82
2022-12-29T05:46:43.994Z,0.67
2022-12-29T05:49:16.996Z,0.48
2022-12-29T05:51:53.321Z,0.36
2022-12-29T05:54:20.311Z,0.27
2022-12-29T05:56:47.257Z,0.26
2022-12-29T05:59:15.031Z,0.27
2022-12-29T06:01:42.938Z,0.31
2022-12-29T06:04:09.909Z,0.38
2022-12-29T06:06:37.181Z,0.47
2022-12-29T06:09:04.464Z,0.59
2022-12-29T06:11:31.675Z,0.68
2022-12-29T06:13:59.743Z,0.74
2022-12-29T06:16:26.618Z,0.82
2022-12-29T06:18:57.584Z,0.86
2022-12-29T06:21:24.400Z,0.92
2022-12-29T06:23:51.205Z,0.98
2022-12-29T06:26:17.927Z,1.08
2022-12-29T06:28:46.180Z,1.20
2022-12-29T06:31:13.115Z,1.30
2022-12-29T06:33:40.306Z,1.39
2022-12-29T06:36:08.114Z,1.46
2022-12-29T06:38:36.300Z,1.53
2022-12-29T06:41:03.155Z,1.58
2022-12-29T06:43:45.926Z,1.61
2022-12-29T06:46:24.517Z,1.63
2022-12-29T06:48:51.272Z,1.65
2022-12-29T06:51:17.993Z,1.65
2022-12-29T06:53:44.904Z,1.63
2022-12-29T06:56:11.642Z,1.49
2022-12-29T06:58:38.571Z,1.31
2022-12-29T07:01:05.499Z,1.23
2022-12-29T07:03:32.332Z,1.20
2022-12-29T07:05:59.219Z,1.20
2022-12-29T07:08:26.171Z,1.26
2022-12-29T07:10:53.381Z,1.37
2022-12-29T07:13:20.360Z,1.49
2022-12-29T07:15:48.057Z,1.61
2022-12-29T07:18:14.767Z,1.78
2022-12-29T07:20:41.597Z,1.95
2022-12-29T07:23:08.846Z,2.16
2022-12-29T07:25:37.007Z,2.44
2022-12-29T07:28:04.904Z,2.69
2022-12-29T07:30:31.739Z,2.91
2022-12-29T07:32:58.614Z,3.08
2022-12-29T07:35:26.469Z,3.24
2022-12-29T07:37:53.242Z,3.35
2022-12-29T07:40:20.071Z,3.42
2022-12-29T07:42:46.863Z,3.46
2022-12-29T07:45:15.870Z,3.49
2022-12-29T07:48:03.626Z,3.49
2022-12-29T07:50:30.556Z,3.46
2022-12-29T07:52:57.280Z,3.46
2022-12-29T07:55:24.007Z,3.50
2022-12-29T07:57:50.819Z,3.54
2022-12-29T08:00:17.733Z,3.58
2022-12-29T08:02:44.732Z,3.66
2022-12-29T08:05:11.534Z,3.73
2022-12-29T08:07:38.658Z,3.79
2022-12-29T08:10:06.913Z,3.88
2022-12-29T08:12:33.707Z,4.00
2022-12-29T08:15:00.469Z,4.16
2022-12-29T08:17:27.215Z,4.32
2022-12-29T08:19:54.388Z,4.51
2022-12-29T08:22:21.220Z,4.72
2022-12-29T08:24:47.991Z,4.97
2022-12-29T08:27:20.481Z,5.27
2022-12-29T08:29:48.499Z,5.66
2022-12-29T08:32:15.454Z,6.00
2022-12-29T08:34:42.195Z,6.18
2022-12-29T08:37:09.073Z,6.39
2022-12-29T08:39:35.810Z,6.71
2022-12-29T08:42:02.598Z,6.89
2022-12-29T08:44:29.352Z,7.01
2022-12-29T08:46:56.214Z,7.09
2022-12-29T08:49:22.991Z,7.16
2022-12-29T08:51:50.709Z,7.18
2022-12-29T08:54:17.468Z,7.21
2022-12-29T08:56:46.007Z,7.28
2022-12-29T08:59:14.247Z,7.40
2022-12-29T09:01:42.401Z,7.68
2022-12-29T09:04:15.452Z,8.12
2022-12-29T09:06:43.619Z,8.66
2022-12-29T09:09:10.454Z,9.12
2022-12-29T09:11:37.418Z,9.57
2022-12-29T09:14:04.583Z,10.09
2022-12-29T09:16:31.502Z,10.75
2022-12-29T09:18:58.271Z,11.35
2022-12-29T09:21:25.026Z,11.81
2022-12-29T09:23:51.796Z,12.27
2022-12-29T09:26:18.490Z,12.62
2022-12-29T09:28:45.674Z,13.01
2022-12-29T09:31:13.994Z,13.26
2022-12-29T09:33:41.102Z,13.46
2022-12-29T09:36:09.413Z,13.50
2022-12-29T09:38:36.554Z,13.50
2022-12-29T09:41:38.989Z,13.50
2022-12-29T09:44:27.991Z,13.44
2022-12-29T09:46:57.001Z,13.43
2022-12-29T09:49:42.172Z,13.38
2022-12-29T09:52:19.384Z,13.28
2022-12-29T09:55:09.106Z,13.20
2022-12-29T09:57:46.401Z,13.13
2022-12-29T10:00:28.934Z,13.17
2022-12-29T10:03:03.693Z,12.98
2022-12-29T10:05:37.791Z,12.75
2022-12-29T10:08:20.003Z,12.48
2022-12-29T10:10:57.397Z,12.22
2022-12-29T10:13:32.428Z,11.94
2022-12-29T10:16:01.399Z,11.66
2022-12-29T10:18:28.118Z,11.38
2022-12-29T10:21:05.478Z,11.14
2022-12-29T10:23:41.216Z,10.90
2022-12-29T10:26:16.359Z,10.69
2022-12-29T10:28:49.968Z,10.56
2022-12-29T10:31:22.730Z,10.52
2022-12-29T10:33:57.420Z,10.55
2022-12-29T10:36:41.688Z,10.78
2022-12-29T10:39:08.323Z,11.00
2022-12-29T10:41:47.824Z,11.01
2022-12-29T10:44:18.020Z,10.98
2022-12-29T10:46:55.052Z,11.10
2022-12-29T10:49:22.643Z,11.32
2022-12-29T10:51:53.050Z,11.51
2022-12-29T10:54:27.637Z,11.58
2022-12-29T10:57:04.651Z,11.57
2022-12-29T10:59:34.659Z,11.49
2022-12-29T11:02:20.209Z,11.39
2022-12-29T11:05:04.123Z,11.34
2022-12-29T11:07:32.132Z,11.25
2022-12-29T11:10:29.534Z,11.17
2022-12-29T11:13:02.242Z,11.08
2022-12-29T11:15:40.542Z,11.03
2022-12-29T11:18:21.960Z,11.00
2022-12-29T11:20:51.892Z,10.96
2022-12-29T11:23:32.025Z,10.93
2022-12-29T11:26:22.342Z,10.82
2022-12-29T11:29:10.083Z,10.83
2022-12-29T11:31:52.722Z,10.94
2022-12-29T11:34:24.551Z,10.88
2022-12-29T11:36:53.934Z,10.79
2022-12-29T11:39:29.967Z,10.76
2022-12-29T11:41:58.409Z,10.74
2022-12-29T11:44:26.065Z,10.69
2022-12-29T11:46:54.319Z,10.66
2022-12-29T11:49:25.381Z,10.64
2022-12-29T11:51:56.000Z,10.68
2022-12-29T11:54:28.377Z,10.72
2022-12-29T11:56:55.864Z,10.74
2022-12-29T11:59:31.081Z,10.76
2022-12-29T12:02:00.410Z,10.81
2022-12-29T12:04:32.056Z,10.84
2022-12-29T12:07:03.657Z,10.88
2022-12-29T12:09:36.053Z,10.87
2022-12-29T12:12:04.451Z,10.90
2022-12-29T12:14:33.998Z,10.91
2022-12-29T12:17:19.745Z,10.88
2022-12-29T12:20:16.964Z,10.82
2022-12-29T12:22:56.504Z,10.73
2022-12-29T12:25:32.885Z,10.69
2022-12-29T12:28:11.091Z,10.70
2022-12-29T12:30:44.646Z,10.69
2022-12-29T12:33:33.384Z,10.70
2022-12-29T12:36:31.253Z,10.74
2022-12-29T12:39:28.920Z,10.92
2022-12-29T12:42:02.698Z,11.06
2022-12-29T12:44:46.812Z,11.21
2022-12-29T12:47:34.687Z,11.58
2022-12-29T12:50:17.560Z,12.34
2022-12-29T12:53:16.855Z,12.77
2022-12-29T12:55:51.356Z,13.07
2022-12-29T12:58:27.843Z,13.29
2022-12-29T13:01:06.723Z,13.28
2022-12-29T13:03:36.988Z,13.01
2022-12-29T13:06:11.196Z,12.68
2022-12-29T13:08:54.212Z,12.43
2022-12-29T13:11:36.913Z,12.09
2022-12-29T13:14:35.584Z,11.82
2022-12-29T13:17:13.071Z,11.52
2022-12-29T13:19:40.843Z,11.31
2022-12-29T13:22:18.636Z,11.20
2022-12-29T13:25:07.591Z,11.15
2022-12-29T13:27:50.050Z,11.39
2022-12-29T13:30:33.040Z,11.80
2022-12-29T13:33:21.143Z,11.89
2022-12-29T13:36:01.830Z,11.78
2022-12-29T13:38:37.237Z,11.64
2022-12-29T13:41:10.484Z,11.48
2022-12-29T13:43:41.007Z,11.37
2022-12-29T13:46:21.153Z,11.30
2022-12-29T13:48:54.468Z,11.20
2022-12-29T13:51:27.624Z,11.07
2022-12-29T13:54:03.990Z,10.96
2022-12-29T13:56:38.254Z,10.80
2022-12-29T13:59:12.849Z,10.62
2022-12-29T14:01:51.354Z,10.47
2022-12-29T14:04:28.025Z,10.36
2022-12-29T14:07:15.880Z,10.23
2022-12-29T14:09:49.901Z,10.13
2022-12-29T14:12:41.265Z,10.02
2022-12-29T14:15:11.344Z,9.96
2022-12-29T14:18:00.306Z,9.85
2022-12-29T14:20:27.084Z,9.75
2022-12-29T14:23:00.629Z,9.65
2022-12-29T14:25:58.309Z,9.53
2022-12-29T14:28:26.573Z,9.41
2022-12-29T14:30:56.754Z,9.31
2022-12-29T14:33:28.219Z,9.20
2022-12-29T14:35:55.949Z,9.10
2022-12-29T14:38:25.941Z,9.01
2022-12-29T14:40:54.538Z,8.91
2022-12-29T14:43:27.853Z,8.82
2022-12-29T14:46:00.762Z,8.72
2022-12-29T14:48:40.272Z,8.64
2022-12-29T14:51:31.008Z,8.55
2022-12-29T14:53:57.902Z,8.44
2022-12-29T14:56:29.405Z,8.36
2022-12-29T14:58:59.603Z,8.25
2022-12-29T15:01:50.905Z,8.16
2022-12-29T15:04:22.892Z,8.06
2022-12-29T15:06:51.248Z,7.98
2022-12-29T15:09:28.493Z,7.90
2022-12-29T15:12:01.845Z,7.81
2022-12-29T15:14:33.092Z,7.73
2022-12-29T15:17:00.823Z,7.65
2022-12-29T15:19:28.795Z,7.59
2022-12-29T15:21:57.028Z,7.54
2022-12-29T15:24:24.627Z,7.47
2022-12-29T15:26:54.082Z,7.43
2022-12-29T15:29:37.377Z,7.40
2022-12-29T15:32:21.997Z,7.36
2022-12-29T15:34:50.174Z,7.33
2022-12-29T15:37:20.729Z,7.32
2022-12-29T15:39:47.753Z,7.33
2022-12-29T15:42:30.934Z,7.33
2022-12-29T15:45:09.763Z,7.37
2022-12-29T15:47:36.871Z,7.44
2022-12-29T15:50:08.869Z,7.50
2022-12-29T15:52:40.201Z,7.56
2022-12-29T15:55:21.086Z,7.59
2022-12-29T15:57:47.764Z,7.64
2022-12-29T16:00:26.748Z,7.66
2022-12-29T16:02:56.514Z,7.67
2022-12-29T16:05:24.021Z,7.68
2022-12-29T16:07:57.115Z,7.68
2022-12-29T16:10:34.602Z,7.67
2022-12-29T16:13:17.971Z,7.65
2022-12-29T16:15:49.376Z,7.62
2022-12-29T16:18:26.655Z,7.59
2022-12-29T16:20:55.518Z,7.58
2022-12-29T16:23:26.962Z,7.57
2022-12-29T16:25:56.140Z,7.59
2022-12-29T16:28:26.526Z,7.59
2022-12-29T16:31:24.813Z,7.62
2022-12-29T16:33:53.899Z,7.63
2022-12-29T16:36:28.193Z,7.64
2022-12-29T16:39:10.161Z,7.66
2022-12-29T16:41:36.919Z,7.68
2022-12-29T16:44:18.873Z,7.68
2022-12-29T16:46:59.430Z,7.70
2022-12-29T16:49:27.405Z,7.72
2022-12-29T16:51:55.923Z,7.73
2022-12-29T16:54:26.259Z,7.74
2022-12-29T16:56:54.068Z,7.78
2022-12-29T16:59:21.943Z,7.82
2022-12-29T17:01:48.956Z,7.86
2022-12-29T17:04:15.883Z,7.89
2022-12-29T17:06:42.604Z,7.91
2022-12-29T17:09:27.095Z,7.93
2022-12-29T17:12:00.349Z,7.92
2022-12-29T17:14:33.854Z,7.93
2022-12-29T17:17:01.363Z,7.91
2022-12-29T17:19:32.173Z,7.89
2022-12-29T17:21:59.798Z,7.86
2022-12-29T17:24:27.017Z,7.83
2022-12-29T17:26:57.412Z,7.80
2022-12-29T17:32:14.487Z,7.73
2022-12-29T17:34:41.942Z,7.70
2022-12-29T17:37:25.719Z,7.67
2022-12-29T17:39:52.684Z,7.65
2022-12-29T17:42:20.151Z,7.65
2022-12-29T17:44:47.193Z,7.64
2022-12-29T17:47:15.908Z,7.61
2022-12-29T17:49:46.478Z,7.57
2022-12-29T17:52:14.974Z,7.52
2022-12-29T17:54:47.837Z,7.44
2022-12-29T17:57:16.010Z,7.40
2022-12-29T17:59:43.332Z,7.33
2022-12-29T18:02:31.767Z,7.27
2022-12-29T18:04:59.461Z,7.22
2022-12-29T18:07:34.068Z,7.15
2022-12-29T18:10:02.876Z,7.07
2022-12-29T18:12:29.598Z,7.01
2022-12-29T18:14:57.385Z,6.91
2022-12-29T18:17:24.719Z,6.87
2022-12-29T18:19:54.883Z,6.82
2022-12-29T18:22:24.940Z,6.78
2022-12-29T18:24:52.162Z,6.76
2022-12-29T18:27:19.691Z,6.76
2022-12-29T18:29:46.879Z,6.73
2022-12-29T18:32:14.130Z,6.67
2022-12-29T18:34:42.603Z,6.64
2022-12-29T18:37:11.228Z,6.59
2022-12-29T18:39:38.168Z,6.54
2022-12-29T18:42:06.499Z,6.49
2022-12-29T18:44:33.694Z,6.43
2022-12-29T18:47:01.857Z,6.43
2022-12-29T18:49:28.710Z,6.41
2022-12-29T18:51:55.492Z,6.39
2022-12-29T18:54:31.921Z,6.34
2022-12-29T18:56:59.827Z,6.30
2022-12-29T18:59:26.528Z,6.27
2022-12-29T19:02:09.158Z,6.23
2022-12-29T19:04:35.939Z,6.24
2022-12-29T19:07:02.693Z,6.29
2022-12-29T19:09:29.491Z,6.32
2022-12-29T19:11:56.303Z,6.35
2022-12-29T19:14:22.995Z,6.36
2022-12-29T19:16:49.834Z,6.37
2022-12-29T19:19:17.258Z,6.36
2022-12-29T19:21:44.680Z,6.34
2022-12-29T19:24:11.694Z,6.33
2022-12-29T19:26:40.762Z,6.29
2022-12-29T19:29:13.695Z,6.23
2022-12-29T19:31:40.642Z,6.21
2022-12-29T19:34:08.088Z,6.20
2022-12-29T19:36:35.090Z,6.19
2022-12-29T19:39:01.911Z,6.17
2022-12-29T19:41:28.721Z,6.15
2022-12-29T19:43:56.048Z,6.08
2022-12-29T19:46:23.483Z,6.01
2022-12-29T19:48:51.574Z,5.94
2022-12-29T19:51:33.739Z,5.85
2022-12-29T19:54:00.503Z,5.70
2022-12-29T19:56:27.383Z,5.55
2022-12-29T19:58:58.980Z,5.41
2022-12-29T20:01:27.501Z,5.30
2022-12-29T20:03:54.404Z,5.26
2022-12-29T20:06:36.567Z,5.22
2022-12-29T20:09:04.058Z,5.22
2022-12-29T20:11:30.844Z,5.26
2022-12-29T20:13:57.862Z,5.32
2022-12-29T20:16:55.095Z,5.40
2022-12-29T20:19:26.752Z,5.43
2022-12-29T20:21:53.517Z,5.44
2022-12-29T20:24:20.274Z,5.42
2022-12-29T20:26:48.610Z,5.40
2022-12-29T20:29:16.318Z,5.35
2022-12-29T20:31:43.170Z,5.29
2022-12-29T20:34:10.272Z,5.24
2022-12-29T20:36:46.232Z,5.20
2022-12-29T20:39:17.806Z,5.21
2022-12-29T20:41:45.730Z,5.23
2022-12-29T20:44:13.075Z,5.23
2022-12-29T20:46:43.864Z,5.25
2022-12-29T20:49:10.983Z,5.26
2022-12-29T20:52:05.115Z,5.26
2022-12-29T20:54:25.219Z,5.24
2022-12-29T20:56:52.510Z,5.21
2022-12-29T20:59:28.199Z,5.19
2022-12-29T21:01:56.415Z,5.15
2022-12-29T21:04:23.375Z,5.12
2022-12-29T21:06:50.341Z,5.14
2022-12-29T21:09:17.093Z,5.19
2022-12-29T21:11:59.625Z,5.21
2022-12-29T21:14:27.989Z,5.27
2022-12-29T21:16:54.727Z,5.32
2022-12-29T21:19:21.553Z,5.32
2022-12-29T21:21:48.379Z,5.32
2022-12-29T21:24:15.084Z,5.29
2022-12-29T21:26:42.914Z,5.30
2022-12-29T21:29:09.665Z,5.30
2022-12-29T21:31:36.953Z,5.35
2022-12-29T21:34:05.513Z,5.37
2022-12-29T21:36:33.167Z,5.38
2022-12-29T21:39:03.607Z,5.39
2022-12-29T21:41:31.245Z,5.38
2022-12-29T21:44:14.032Z,5.36
2022-12-29T21:46:43.961Z,5.33
2022-12-29T21:49:10.862Z,5.29
2022-12-29T21:51:53.284Z,5.27
2022-12-29T21:54:39.485Z,5.23
2022-12-29T21:57:06.754Z,5.22
2022-12-29T21:59:49.420Z,5.23
2022-12-29T22:02:36.328Z,5.25
2022-12-29T22:05:20.501Z,5.24
2022-12-29T22:08:02.461Z,5.23
2022-12-29T22:10:44.663Z,5.22
2022-12-29T22:13:11.776Z,5.20
2022-12-29T22:15:40.330Z,5.19
2022-12-29T22:18:07.167Z,5.19
2022-12-29T22:20:36.423Z,5.21
2022-12-29T22:23:03.915Z,5.25
2022-12-29T22:25:30.719Z,5.27
2022-12-29T22:27:59.804Z,5.28
2022-12-29T22:30:28.630Z,5.29
2022-12-29T22:32:58.546Z,5.30
2022-12-29T22:35:25.495Z,5.32
2022-12-29T22:37:52.285Z,5.32
2022-12-29T22:40:19.573Z,5.35
2022-12-29T22:42:46.438Z,5.40
2022-12-29T22:45:13.283Z,5.47
2022-12-29T22:47:40.194Z,5.53
2022-12-29T22:50:07.257Z,5.57
2022-12-29T22:52:34.120Z,5.60
2022-12-29T22:55:06.488Z,5.62
2022-12-29T22:57:35.170Z,5.61
2022-12-29T23:00:02.680Z,5.57
2022-12-29T23:02:30.490Z,5.49
2022-12-29T23:05:05.529Z,5.41
2022-12-29T23:07:34.706Z,5.30
2022-12-29T23:10:01.779Z,5.19
2022-12-29T23:12:31.224Z,5.11
2022-12-29T23:14:58.439Z,5.02
2022-12-29T23:17:26.413Z,4.90
2022-12-29T23:19:53.618Z,4.79
2022-12-29T23:22:20.654Z,4.70
2022-12-29T23:24:47.551Z,4.67
2022-12-29T23:27:14.299Z,4.64
2022-12-29T23:29:41.058Z,4.62
2022-12-29T23:32:07.830Z,4.59
2022-12-29T23:34:34.628Z,4.52
2022-12-29T23:37:01.370Z,4.41
2022-12-29T23:39:29.156Z,4.29
2022-12-29T23:41:55.954Z,4.14
2022-12-29T23:44:22.756Z,3.99
2022-12-29T23:46:49.624Z,3.83
2022-12-29T23:49:16.397Z,3.70
2022-12-29T23:51:43.148Z,3.58
2022-12-29T23:54:10.001Z,3.48
2022-12-29T23:56:36.690Z,3.43
2022-12-29T23:59:05.400Z,3.37
